Glouster Point, Virginia
Current Conditions -  °F | °C
As of 4:54 PM on Thursday 23 Oct 2014 (Local Time) from KPHF Reporting Station
Clear Clear  
Wind Chill: 19°   Ceiling: Unl
Heat Index: 19°   Visibility: 10mi
Dew Point:   Wind: 9mph
Humidity: 49%   Direction: 340°NNW
Pressure: 29.85"   Gusts: NA
Location:  37.2577°N, 76.4965°W
Report Text: KPHF 232054Z AUTO 34008KT 10SM CLR 19/08 A2985 RMK AO2 SLP106 T01940083 55003 TSNO
Loading
Personal Weather Stations






























Interactive Weather Map
Tropical Storm Tracking
New forecast layout! Learn more

10-Day Weather Forecast

Advertisements
Track Severe Weather on mobile